INFORMAÇÕES DO AERODROMO
Icao Aerodromo SBPB Nome do Aerodromo Prefeito Doutor João Silva Filho Airport Cidade Parnaíba
Código GPS SBPB Elevação Média 16 ft Tipo de Aerodromo small_airport

INFORMAÇÃO DE PISTA
Pista 9 Comprimento da Pista 6890 ft Largura da Pista 148 ft
Elevação da Pista 0 ft Distância de Area de Escape da Pista 0 ft Orientação da Pista 0
Pista 27 Comprimento da Pista 6890 ft Largura da Pista 148 ft
Elevação da Pista 0 ft Distância de Area de Escape da Pista 0 ft Orientação da Pista 0

FREQUÊNCIAS DO AERODROMO
Tipo AFIS Nome RDO Frequência 126.6 MHZ

INFORMAÇÕES DE NAVEGAÇÃO PRÓXIMO AO AERODROMO
Tipo NDB Nome Parnaiba Frequência 365 KHZ

Informações de Meteorologia(METAR atual)
METAR DE SBPB
ADDS - METARS form results

(0523 UTC 24 May 2019)
Data provider http://aviationweather.gov/metar/data/
 
Forecast for: SBPB (PARNAIBA AIRPORT, BR)
Text: TAF SBPB 240400Z 2406/2418 07008KT 9999 FEW020 TN23/2408Z TX32/2418Z RMK PAY
Forecast period: 0600 to 1800 UTC 24 May 2019
Forecast type: FROM: standard forecast or significant change
Winds: from the ENE (70 degrees) at 9 MPH (8 knots; 4.1 m/s)
Visibility: 6 or more miles 10+ km)
Ceiling: at least 12,000 feet AGL
Clouds: few clouds at 2000 feet AGL
Weather: no significant weather forecast for this period

MAPA DO AERODROMO


Desenvolvido por Virtual Airlines Manager




Modificado por Servidor Brasil Amigos